Time;durP1;ratioP1;P1;durP2;ratioP2;P2;SDS_P1;SDS_P2;PMS_P1;PMS_P2;Temp;Humidity;BMP_temperature;BMP_pressure;BME280_temperature;BME280_humidity;BME280_pressure;Samples;Min_cycle;Max_cycle;Signal;HPM_P1;HPM_P2
2022/03/02 00:00:58;;;;;;;34.83;16.32;;;;;;;2.89;78.06;100981.73;1768552;81;22178;-69
2022/03/02 00:03:24;;;;;;;36.13;14.63;;;;;;;2.95;77.99;100977.89;1768047;81;21560;-69
2022/03/02 00:05:50;;;;;;;37.25;16.25;;;;;;;2.96;78.25;100967.91;1768426;81;21087;-69
2022/03/02 00:08:17;;;;;;;34.88;15.32;;;;;;;3.04;77.73;100967.98;1768284;81;21095;-70
2022/03/02 00:10:45;;;;;;;32.73;15.45;;;;;;;3.07;77.74;100964.09;1768559;81;21051;-70
2022/03/02 00:13:12;;;;;;;30.57;14.47;;;;;;;3.16;77.78;100956.34;1771951;80;21921;-69
2022/03/02 00:15:40;;;;;;;35.28;15.85;;;;;;;3.26;77.84;100949.45;1773865;80;21083;-69
2022/03/02 00:18:07;;;;;;;53.75;21.30;;;;;;;3.38;77.02;100952.12;1773744;80;21039;-69
2022/03/02 00:20:34;;;;;;;51.05;18.30;;;;;;;3.32;76.70;100950.37;1773798;80;21071;-70
2022/03/02 00:23:01;;;;;;;37.85;17.65;;;;;;;3.26;76.90;100949.45;1773842;80;21733;-69
2022/03/02 00:25:28;;;;;;;46.58;18.60;;;;;;;3.12;76.91;100951.53;1774057;80;22062;-69
2022/03/02 00:27:54;;;;;;;48.30;19.50;;;;;;;3.07;77.38;100942.83;1773698;80;21023;-69
2022/03/02 00:30:22;;;;;;;45.12;21.23;;;;;;;3.12;77.82;100942.42;1773683;80;21623;-70
2022/03/02 00:32:50;;;;;;;35.15;16.32;;;;;;;3.13;77.51;100933.77;1773655;80;21015;-70
2022/03/02 00:35:17;;;;;;;48.92;18.75;;;;;;;3.15;77.84;100928.15;1773577;80;21074;-69
2022/03/02 00:37:43;;;;;;;37.38;16.67;;;;;;;3.25;77.97;100929.06;1773610;80;21232;-69
2022/03/02 00:40:10;;;;;;;38.40;17.48;;;;;;;3.29;77.86;100926.03;1773562;80;21098;-70
2022/03/02 00:42:37;;;;;;;43.52;18.55;;;;;;;3.29;77.50;100923.02;1773726;80;21055;-68
2022/03/02 00:45:05;;;;;;;43.55;18.82;;;;;;;3.28;77.58;100921.27;1773888;80;21024;-69
2022/03/02 00:47:32;;;;;;;38.02;18.27;;;;;;;3.28;77.55;100907.38;1774047;80;21094;-68
2022/03/02 00:50:01;;;;;;;43.65;19.70;;;;;;;3.26;77.79;100906.50;1773799;80;22373;-69
2022/03/02 00:52:28;;;;;;;48.17;19.42;;;;;;;3.26;78.10;100908.66;1774007;80;21618;-69
2022/03/02 00:54:55;;;;;;;44.88;18.98;;;;;;;3.21;77.69;100910.38;1790818;79;21164;-70
2022/03/02 00:57:21;;;;;;;40.45;18.05;;;;;;;3.10;78.04;100915.95;1800575;79;21073;-69
2022/03/02 00:59:49;;;;;;;43.15;19.12;;;;;;;3.07;78.65;100907.70;1800319;79;20968;-69
2022/03/02 01:02:16;;;;;;;42.48;19.15;;;;;;;3.09;78.63;100899.91;1800087;79;21105;-69
2022/03/02 01:04:43;;;;;;;37.88;16.87;;;;;;;3.15;78.61;100897.32;1800423;79;21070;-69
2022/03/02 01:07:09;;;;;;;46.77;18.57;;;;;;;3.10;78.99;100898.59;1800116;79;20979;-68
2022/03/02 01:09:38;;;;;;;44.42;19.77;;;;;;;3.21;79.07;100902.57;1800398;79;21029;-68
2022/03/02 01:12:04;;;;;;;44.50;19.57;;;;;;;3.27;78.42;100893.94;1799998;79;21105;-68
2022/03/02 01:14:31;;;;;;;51.08;20.10;;;;;;;3.20;78.48;100894.74;1794712;80;21089;-69
2022/03/02 01:16:58;;;;;;;40.67;19.07;;;;;;;3.16;78.30;100892.58;1794333;80;21031;-70
2022/03/02 01:19:25;;;;;;;47.78;19.27;;;;;;;3.11;78.82;100889.95;1794728;80;21073;-69
2022/03/02 01:21:51;;;;;;;39.13;17.27;;;;;;;3.07;78.95;100893.38;1794828;79;21054;-69
2022/03/02 01:24:18;;;;;;;42.05;18.25;;;;;;;3.17;79.60;100890.83;1794731;80;21046;-68
2022/03/02 01:26:46;;;;;;;47.98;19.98;;;;;;;3.25;78.83;100883.52;1794812;80;21884;-70
2022/03/02 01:29:13;;;;;;;38.02;17.07;;;;;;;3.25;78.81;100882.20;1724271;82;21094;-69
2022/03/02 01:31:40;;;;;;;41.95;17.15;;;;;;;3.24;78.69;100879.59;1724034;82;21074;-68
2022/03/02 01:34:06;;;;;;;46.45;18.57;;;;;;;3.36;78.96;100875.77;1723786;83;21063;-69
2022/03/02 01:36:33;;;;;;;43.73;19.62;;;;;;;3.37;78.59;100868.38;1724173;83;21569;-70
2022/03/02 01:39:00;;;;;;;47.30;20.48;;;;;;;3.39;78.21;100873.59;1724039;82;21840;-70
2022/03/02 01:41:26;;;;;;;51.08;19.52;;;;;;;3.33;78.09;100882.23;1723943;82;21085;-70
2022/03/02 01:43:54;;;;;;;49.65;20.30;;;;;;;3.25;78.58;100877.44;1724001;82;21015;-71
2022/03/02 01:46:21;;;;;;;50.00;19.55;;;;;;;3.18;78.49;100886.09;1723792;82;21078;-69
2022/03/02 01:48:48;;;;;;;40.12;18.60;;;;;;;3.05;78.83;100874.72;1724190;83;21050;-69
2022/03/02 01:51:17;;;;;;;43.87;19.00;;;;;;;2.97;79.65;100878.59;1723816;82;21140;-69
2022/03/02 01:53:43;;;;;;;43.87;19.35;;;;;;;3.00;80.68;100878.60;1722162;83;21047;-70
2022/03/02 01:56:10;;;;;;;51.33;20.82;;;;;;;2.99;80.19;100879.48;1778659;80;21575;-70
2022/03/02 01:58:36;;;;;;;48.17;19.60;;;;;;;2.93;80.66;100874.22;1779026;80;21091;-70
2022/03/02 02:01:02;;;;;;;53.38;21.15;;;;;;;3.00;81.14;100866.89;1778748;80;21106;-68
2022/03/02 02:03:29;;;;;;;51.80;21.50;;;;;;;3.08;80.70;100865.22;1778725;80;21371;-69
2022/03/02 02:05:56;;;;;;;53.20;21.80;;;;;;;3.11;80.95;100857.41;1778695;80;21044;-69
2022/03/02 02:08:23;;;;;;;52.23;21.60;;;;;;;3.12;80.43;100853.93;1778662;80;21051;-69
2022/03/02 02:10:50;;;;;;;49.27;19.85;;;;;;;3.06;80.15;100850.02;1778660;80;21067;-68
2022/03/02 02:13:18;;;;;;;47.83;21.25;;;;;;;3.14;81.72;100844.41;1782098;80;21022;-68
2022/03/02 02:15:47;;;;;;;51.37;19.52;;;;;;;3.18;80.35;100837.94;1787414;80;21086;-68
2022/03/02 02:18:13;;;;;;;48.87;20.00;;;;;;;3.25;81.68;100824.08;1787176;80;20975;-70
2022/03/02 02:20:41;;;;;;;50.75;20.88;;;;;;;3.60;81.30;100831.13;1787610;80;21101;-69
2022/03/02 02:23:07;;;;;;;48.68;20.10;;;;;;;3.65;79.15;100828.10;1787672;80;21007;-68
2022/03/02 02:25:34;;;;;;;57.00;21.17;;;;;;;3.54;78.51;100828.06;1787603;80;21613;-70
2022/03/02 02:28:01;;;;;;;57.00;22.70;;;;;;;3.50;78.94;100836.31;1787574;80;21837;-69
2022/03/02 02:30:27;;;;;;;52.62;21.40;;;;;;;3.38;78.71;100826.27;1787754;80;21546;-69
2022/03/02 02:32:54;;;;;;;53.10;22.42;;;;;;;3.24;79.29;100827.52;1787385;80;21605;-69
2022/03/02 02:35:21;;;;;;;49.93;20.82;;;;;;;3.12;79.56;100830.51;1787496;80;21586;-69
2022/03/02 02:37:47;;;;;;;56.15;21.80;;;;;;;3.09;80.30;100829.64;1787905;80;21047;-70
2022/03/02 02:40:19;;;;;;;48.45;20.25;;;;;;;3.09;80.61;100829.20;1787578;80;21140;-70
2022/03/02 02:42:47;;;;;;;54.83;21.68;;;;;;;3.06;80.42;100822.70;1787405;80;21814;-70
2022/03/02 02:45:18;;;;;;;50.33;21.17;;;;;;;2.99;81.45;100823.53;1787087;80;21100;-69
2022/03/02 02:47:45;;;;;;;53.45;21.68;;;;;;;2.90;81.82;100822.19;1786987;80;21643;-69
2022/03/02 02:50:27;;;;;;;54.65;22.37;;;;;;;2.91;82.12;100821.30;1787040;80;21572;-70
2022/03/02 02:52:55;;;;;;;56.35;22.80;;;;;;;2.82;81.99;100817.36;1786820;80;21172;-70
2022/03/02 02:55:24;;;;;;;52.88;20.82;;;;;;;2.69;82.48;100815.99;1786900;80;20974;-69
2022/03/02 02:57:52;;;;;;;52.93;21.27;;;;;;;2.61;83.08;100814.20;1786987;80;21561;-69
2022/03/02 03:00:20;;;;;;;49.73;20.88;;;;;;;2.59;83.75;100805.08;1787087;80;21557;-68
2022/03/02 03:02:48;;;;;;;48.02;20.10;;;;;;;2.64;84.00;100804.67;1786945;80;21105;-69
2022/03/02 03:05:18;;;;;;;55.55;21.68;;;;;;;2.71;84.40;100809.08;1787001;80;21227;-69
2022/03/02 03:07:45;;;;;;;57.50;22.82;;;;;;;2.82;83.76;100803.05;1787250;80;21603;-69
2022/03/02 03:10:13;;;;;;;50.15;21.00;;;;;;;2.82;83.56;100802.61;1787085;80;21061;-68
2022/03/02 03:12:40;;;;;;;52.27;22.87;;;;;;;2.76;83.75;100802.59;1787041;80;21056;-69
2022/03/02 03:15:09;;;;;;;56.20;22.87;;;;;;;2.90;84.21;100794.87;1787159;80;21124;-69
2022/03/02 03:17:36;;;;;;;53.87;23.52;;;;;;;2.93;83.21;100801.38;1786942;80;21119;-69
2022/03/02 03:20:05;;;;;;;54.33;21.02;;;;;;;2.85;83.04;100792.64;1786925;80;21013;-70
2022/03/02 03:22:32;;;;;;;54.63;21.52;;;;;;;2.85;83.42;100793.54;1786938;80;21010;-70
2022/03/02 03:24:58;;;;;;;58.25;22.95;;;;;;;2.86;83.68;100790.06;1787301;80;21037;-70
2022/03/02 03:27:26;;;;;;;52.15;20.92;;;;;;;2.88;83.73;100786.18;1787092;80;21128;-69
2022/03/02 03:29:52;;;;;;;53.85;22.60;;;;;;;2.92;83.57;100787.91;1787081;80;21129;-70
2022/03/02 03:32:19;;;;;;;55.70;23.18;;;;;;;2.88;83.48;100791.38;1786883;80;21509;-69
2022/03/02 03:34:46;;;;;;;57.90;23.60;;;;;;;2.86;83.24;100791.36;1787229;80;21093;-70
2022/03/02 03:37:12;;;;;;;58.63;22.42;;;;;;;2.78;83.60;100792.17;1787288;80;21533;-69
2022/03/02 03:39:42;;;;;;;59.58;24.63;;;;;;;2.71;84.00;100793.47;1787206;80;21008;-68
2022/03/02 03:42:09;;;;;;;69.20;24.87;;;;;;;2.67;84.20;100790.84;1787373;80;21069;-70
2022/03/02 03:44:37;;;;;;;53.38;22.17;;;;;;;2.63;84.51;100785.17;1787018;80;21533;-71
2022/03/02 03:47:06;;;;;;;63.17;23.27;;;;;;;2.60;84.83;100776.93;1787035;80;21077;-70
2022/03/02 03:49:33;;;;;;;50.23;19.53;;;;;;;2.62;84.67;100771.71;1787452;80;21526;-71
2022/03/02 03:52:00;;;;;;;53.25;20.70;;;;;;;2.68;84.77;100757.45;1758700;80;21617;-70
2022/03/02 03:54:27;;;;;;;58.15;23.15;;;;;;;2.74;85.00;100753.59;1773216;80;21644;-70
2022/03/02 03:56:53;;;;;;;49.40;20.82;;;;;;;2.78;85.11;100749.26;1756372;81;21026;-69
2022/03/02 03:59:20;;;;;;;49.38;21.02;;;;;;;2.80;84.44;100755.34;1756056;81;21053;-70
2022/03/02 04:01:47;;;;;;;52.55;22.00;;;;;;;2.76;84.36;100741.47;1755951;81;21066;-71
2022/03/02 04:04:13;;;;;;;52.10;21.48;;;;;;;2.82;84.77;100740.61;1756204;81;21021;-70
2022/03/02 04:06:40;;;;;;;55.55;21.73;;;;;;;2.88;84.75;100735.45;1755965;81;21103;-70
2022/03/02 04:09:06;;;;;;;50.67;20.82;;;;;;;2.88;84.30;100735.45;1755804;81;21041;-69
2022/03/02 04:11:33;;;;;;;54.80;21.50;;;;;;;2.94;84.75;100736.34;1755958;81;21037;-70
2022/03/02 04:13:59;;;;;;;56.02;20.77;;;;;;;2.99;84.17;100732.86;1740165;81;21067;-70
2022/03/02 04:16:26;;;;;;;55.00;21.35;;;;;;;2.97;83.81;100731.98;1717187;82;21089;-70
2022/03/02 04:18:53;;;;;;;45.88;19.80;;;;;;;2.88;83.67;100723.30;1717415;82;21152;-69
2022/03/02 04:21:19;;;;;;;49.85;20.25;;;;;;;2.90;83.81;100728.52;1717170;83;21038;-69
2022/03/02 04:23:46;;;;;;;51.92;21.17;;;;;;;2.83;84.01;100726.33;1717394;82;21085;-69
2022/03/02 04:26:13;;;;;;;54.18;21.90;;;;;;;2.77;83.98;100729.33;1717625;83;21140;-69
2022/03/02 04:28:40;;;;;;;52.05;20.37;;;;;;;2.72;84.43;100726.27;1717282;83;21223;-69
2022/03/02 04:31:07;;;;;;;48.78;19.70;;;;;;;2.73;84.73;100720.19;1717293;83;21166;-69
2022/03/02 04:33:33;;;;;;;42.95;17.90;;;;;;;2.74;84.49;100721.09;1717192;83;21041;-70
2022/03/02 04:35:59;;;;;;;48.02;19.32;;;;;;;2.83;85.48;100716.33;1717261;83;21527;-70
2022/03/02 04:38:26;;;;;;;47.62;19.35;;;;;;;2.93;84.29;100718.12;1716908;83;21061;-71
2022/03/02 04:40:53;;;;;;;46.77;19.37;;;;;;;2.89;84.12;100717.22;1717531;83;21109;-68
2022/03/02 04:43:19;;;;;;;54.55;21.85;;;;;;;2.87;83.85;100716.34;1716981;82;21097;-68
2022/03/02 04:45:46;;;;;;;46.18;20.55;;;;;;;2.86;84.09;100718.52;1717068;83;22151;-70
2022/03/02 04:48:13;;;;;;;51.28;20.48;;;;;;;2.78;84.69;100718.05;1717040;83;21323;-69
2022/03/02 04:50:40;;;;;;;43.90;18.07;;;;;;;2.78;84.73;100716.75;1717119;83;21062;-69
2022/03/02 04:53:06;;;;;;;49.15;18.85;;;;;;;2.78;85.25;100723.25;1717098;83;21078;-70
2022/03/02 04:55:33;;;;;;;48.42;20.40;;;;;;;2.90;84.84;100722.02;1766430;81;21176;-69
2022/03/02 04:58:00;;;;;;;42.83;17.60;;;;;;;2.90;84.28;100720.72;1771312;81;21065;-69
2022/03/02 05:00:33;;;;;;;49.98;20.30;;;;;;;2.88;84.56;100719.84;1770297;81;21022;-68
2022/03/02 05:03:02;;;;;;;46.05;19.40;;;;;;;2.93;84.33;100724.18;1766348;80;22062;-70
2022/03/02 05:05:31;;;;;;;53.05;20.32;;;;;;;2.92;85.30;100729.38;1766214;81;21093;-69
2022/03/02 05:07:58;;;;;;;54.23;21.52;;;;;;;2.98;84.23;100725.94;1766102;80;21049;-69
2022/03/02 05:10:25;;;;;;;48.00;19.23;;;;;;;2.88;83.78;100718.54;1766203;81;21093;-71
2022/03/02 05:12:53;;;;;;;42.70;17.20;;;;;;;2.78;84.43;100724.11;1766081;80;21606;-69
2022/03/02 05:15:20;;;;;;;49.60;20.70;;;;;;;2.76;84.96;100723.27;1771894;80;21327;-69
2022/03/02 05:17:47;;;;;;;48.08;20.45;;;;;;;2.83;85.29;100724.13;1773281;80;21026;-72
2022/03/02 05:20:15;;;;;;;47.58;20.25;;;;;;;2.95;85.27;100724.20;1773394;80;21547;-69
2022/03/02 05:22:42;;;;;;;44.35;19.82;;;;;;;3.07;84.91;100724.23;1773165;80;21014;-70
2022/03/02 05:25:11;;;;;;;48.65;20.48;;;;;;;3.08;83.66;100725.98;1773274;80;21006;-70
2022/03/02 05:27:37;;;;;;;50.30;20.25;;;;;;;3.00;83.87;100717.27;1773312;80;21109;-69
2022/03/02 05:30:06;;;;;;;51.25;21.12;;;;;;;3.02;84.42;100725.95;1773409;80;21113;-69
2022/03/02 05:32:32;;;;;;;51.88;22.45;;;;;;;3.06;84.20;100719.91;1773558;80;21097;-69
2022/03/02 05:34:59;;;;;;;50.78;22.70;;;;;;;3.09;84.64;100718.60;1773222;80;21014;-68
2022/03/02 05:37:25;;;;;;;53.63;22.93;;;;;;;3.17;83.83;100719.05;1773650;80;21041;-68
2022/03/02 05:39:52;;;;;;;58.38;22.67;;;;;;;3.14;83.97;100712.97;1773386;80;20994;-70
2022/03/02 05:42:18;;;;;;;69.87;32.40;;;;;;;3.22;83.27;100713.42;1773653;80;21049;-70
2022/03/02 05:44:46;;;;;;;57.05;26.12;;;;;;;3.15;83.08;100709.52;1773343;80;21199;-70
2022/03/02 05:47:13;;;;;;;49.05;19.90;;;;;;;3.03;83.10;100717.27;1773267;80;21015;-71
2022/03/02 05:49:40;;;;;;;56.33;21.82;;;;;;;3.00;83.92;100715.97;1773259;80;21038;-69
2022/03/02 05:52:06;;;;;;;52.13;21.85;;;;;;;2.96;83.88;100712.05;1773333;80;21293;-70
2022/03/02 05:54:33;;;;;;;49.18;20.48;;;;;;;2.90;84.07;100711.61;1784054;79;21022;-70
2022/03/02 05:57:00;;;;;;;71.40;25.90;;;;;;;2.91;84.90;100712.03;1794780;80;21129;-69
2022/03/02 05:59:26;;;;;;;66.15;24.52;;;;;;;2.98;85.14;100721.59;1794862;79;21034;-70
2022/03/02 06:01:52;;;;;;;50.95;21.25;;;;;;;3.04;84.54;100711.22;1778340;80;21041;-69
2022/03/02 06:04:19;;;;;;;78.07;26.65;;;;;;;3.06;84.37;100716.41;1773498;80;21101;-70
2022/03/02 06:06:47;;;;;;;51.63;21.00;;;;;;;3.07;83.90;100715.13;1773312;80;21050;-70
2022/03/02 06:09:16;;;;;;;45.88;20.45;;;;;;;3.07;84.46;100721.63;1773124;80;21038;-70
2022/03/02 06:11:43;;;;;;;40.12;18.40;;;;;;;3.24;84.79;100716.89;1773371;80;21081;-70
2022/03/02 06:14:11;;;;;;;51.08;22.60;;;;;;;3.35;84.02;100719.09;1773247;80;22091;-69
2022/03/02 06:16:40;;;;;;;53.13;22.45;;;;;;;3.29;83.41;100714.75;1773187;80;21116;-69
2022/03/02 06:19:08;;;;;;;76.20;26.68;;;;;;;3.32;83.66;100713.89;1773500;80;21546;-71
2022/03/02 06:21:38;;;;;;;52.58;23.10;;;;;;;3.40;83.29;100706.94;1773348;80;21597;-71
2022/03/02 06:24:06;;;;;;;40.45;20.00;;;;;;;3.51;84.89;100701.31;1773164;80;21070;-70
2022/03/02 06:26:34;;;;;;;46.23;20.77;;;;;;;3.58;82.75;100698.29;1773513;80;21625;-71
2022/03/02 06:29:01;;;;;;;43.45;20.25;;;;;;;3.60;82.11;100703.52;1773259;80;21617;-70
2022/03/02 06:31:28;;;;;;;46.23;20.30;;;;;;;3.49;82.54;100693.08;1773267;80;20995;-70
2022/03/02 06:33:56;;;;;;;41.88;18.62;;;;;;;3.29;82.70;100700.44;1773082;80;21133;-70
2022/03/02 06:36:23;;;;;;;44.35;20.65;;;;;;;3.10;82.88;100704.70;1773152;80;21593;-72
2022/03/02 06:38:50;;;;;;;43.20;20.08;;;;;;;3.01;83.92;100709.89;1773335;80;20990;-70
2022/03/02 06:41:38;;;;;;;43.78;20.23;;;;;;;2.98;84.36;100705.13;1773363;80;21506;-72
2022/03/02 06:44:27;;;;;;;48.55;19.82;;;;;;;2.96;84.74;100699.91;1773000;80;21581;-70
2022/03/02 06:47:03;;;;;;;46.75;20.90;;;;;;;2.98;85.43;100699.48;1773549;80;21559;-70
2022/03/02 06:49:46;;;;;;;58.33;21.97;;;;;;;3.10;84.97;100693.44;1773176;80;21097;-70
2022/03/02 06:52:16;;;;;;;45.33;20.70;;;;;;;3.03;85.09;100693.84;1762361;80;21090;-69
2022/03/02 06:54:44;;;;;;;61.63;27.93;;;;;;;2.99;85.60;100692.13;1773407;80;21045;-70
2022/03/02 06:57:13;;;;;;;69.35;29.42;;;;;;;2.99;85.96;100684.32;1773390;80;21010;-70
2022/03/02 06:59:43;;;;;;;64.00;25.37;;;;;;;3.00;85.84;100685.19;1773320;80;21208;-70
2022/03/02 07:02:15;;;;;;;53.92;21.87;;;;;;;2.99;86.19;100681.72;1773118;80;21097;-69
2022/03/02 07:04:43;;;;;;;50.78;21.73;;;;;;;3.03;86.28;100671.73;1773198;80;21006;-70
2022/03/02 07:07:11;;;;;;;49.20;19.67;;;;;;;3.15;86.73;100672.19;1773309;80;21609;-71
2022/03/02 07:09:38;;;;;;;45.92;20.02;;;;;;;3.26;85.83;100670.47;1773173;80;21018;-70
2022/03/02 07:12:08;;;;;;;55.83;22.75;;;;;;;3.29;85.68;100674.81;1773190;80;22003;-70
2022/03/02 07:14:38;;;;;;;53.95;21.90;;;;;;;3.29;85.33;100677.01;1774207;80;21065;-70
2022/03/02 07:17:06;;;;;;;58.80;24.05;;;;;;;3.21;85.31;100673.52;1779444;80;20990;-70
2022/03/02 07:19:33;;;;;;;52.58;23.05;;;;;;;3.07;85.92;100673.48;1779033;80;21576;-70
2022/03/02 07:22:07;;;;;;;53.87;22.67;;;;;;;2.95;86.71;100674.77;1779362;80;21613;-70
2022/03/02 07:24:42;;;;;;;62.98;25.80;;;;;;;2.94;87.51;100674.31;1778922;80;21197;-70
2022/03/02 07:29:06;;;;;;;51.60;21.80;;;;;;;3.00;88.23;100669.58;1814320;79;28522;-71
2022/03/02 07:31:35;;;;;;;59.27;23.32;;;;;;;2.88;88.22;100671.27;1787827;80;21458;-70
2022/03/02 07:34:02;;;;;;;48.83;20.27;;;;;;;2.90;88.81;100666.08;1787411;80;21078;-70
2022/03/02 07:36:32;;;;;;;47.38;20.48;;;;;;;2.93;88.67;100666.08;1787656;80;21631;-71
2022/03/02 07:39:02;;;;;;;65.75;25.55;;;;;;;3.01;89.28;100659.14;1787524;80;21009;-70
2022/03/02 07:41:31;;;;;;;66.37;27.07;;;;;;;3.06;88.57;100661.35;1787307;80;21140;-71
2022/03/02 07:43:58;;;;;;;54.27;23.05;;;;;;;3.03;88.45;100660.02;1787210;80;21648;-71
2022/03/02 07:46:28;;;;;;;71.57;27.15;;;;;;;3.05;89.08;100658.30;1787290;80;21970;-71
2022/03/02 07:48:56;;;;;;;85.05;38.38;;;;;;;3.15;89.03;100661.78;1787186;80;20965;-72
2022/03/02 07:51:24;;;;;;;50.20;21.57;;;;;;;3.15;88.44;100653.97;1787630;80;21030;-70
2022/03/02 07:53:52;;;;;;;74.07;26.77;;;;;;;3.13;88.62;100648.78;1767054;79;21523;-71
2022/03/02 07:56:20;;;;;;;67.08;24.05;;;;;;;3.10;88.72;100653.10;1726424;82;21582;-70
2022/03/02 07:58:47;;;;;;;55.20;22.50;;;;;;;3.10;89.15;100650.50;1726322;83;22065;-70
2022/03/02 08:01:20;;;;;;;60.65;23.83;;;;;;;3.18;89.60;100645.33;1726243;83;21570;-70
2022/03/02 08:03:50;;;;;;;62.43;24.57;;;;;;;3.22;89.09;100647.05;1726250;83;21586;-70
2022/03/02 08:06:20;;;;;;;57.17;22.37;;;;;;;3.19;89.24;100642.70;1726512;83;21163;-72
2022/03/02 08:08:50;;;;;;;57.13;22.05;;;;;;;3.22;89.80;100648.34;1726285;83;22358;-70
2022/03/02 08:11:17;;;;;;;44.25;19.25;;;;;;;3.21;89.53;100650.52;1708288;83;21769;-70
2022/03/02 08:13:45;;;;;;;46.63;18.90;;;;;;;3.21;89.66;100644.02;1726113;82;21563;-71
2022/03/02 08:16:15;;;;;;;53.85;22.00;;;;;;;3.22;89.79;100639.23;1726213;82;21551;-71
2022/03/02 08:18:43;;;;;;;47.48;19.60;;;;;;;3.26;90.12;100638.38;1725807;82;21551;-71
2022/03/02 08:21:11;;;;;;;50.45;20.45;;;;;;;3.24;90.25;100638.80;1726043;83;21613;-71
2022/03/02 08:23:40;;;;;;;44.03;19.32;;;;;;;3.27;90.81;100635.78;1725735;82;21586;-72
2022/03/02 08:26:09;;;;;;;53.58;20.48;;;;;;;3.30;90.64;100625.36;1726231;82;21700;-72
2022/03/02 08:28:37;;;;;;;45.90;17.90;;;;;;;3.29;90.60;100624.05;1717311;82;21040;-71
2022/03/02 08:31:05;;;;;;;46.05;19.60;;;;;;;3.33;90.69;100621.89;1713859;83;21513;-71
2022/03/02 08:33:34;;;;;;;46.42;18.65;;;;;;;3.43;90.28;100617.55;1713605;83;21528;-71
2022/03/02 08:36:04;;;;;;;48.30;18.92;;;;;;;3.44;90.02;100611.48;1713546;82;21643;-71
2022/03/02 08:38:35;;;;;;;47.03;18.45;;;;;;;3.49;89.95;100608.00;1713505;83;21496;-70
2022/03/02 08:41:01;;;;;;;51.92;22.98;;;;;;;3.45;90.10;100614.11;1702358;83;21834;-71
2022/03/02 08:43:30;;;;;;;68.52;24.23;;;;;;;3.50;90.01;100607.15;1712863;83;21134;-71
2022/03/02 08:45:57;;;;;;;64.75;22.60;;;;;;;3.45;90.19;100606.29;1713191;82;21031;-70
2022/03/02 08:48:28;;;;;;;47.25;18.98;;;;;;;3.47;90.59;100599.31;1732168;82;21552;-71
2022/03/02 08:50:59;;;;;;;43.98;17.80;;;;;;;3.49;90.78;100598.03;1742512;82;21625;-71
2022/03/02 08:53:29;;;;;;;43.30;18.23;;;;;;;3.51;90.75;100600.20;1720332;80;21677;-71
2022/03/02 08:55:56;;;;;;;44.40;17.50;;;;;;;3.53;91.03;100601.93;1712942;82;21658;-72
2022/03/02 08:58:24;;;;;;;42.40;16.20;;;;;;;3.56;91.31;100596.70;1713011;83;21566;-71
2022/03/02 09:00:52;;;;;;;42.43;16.62;;;;;;;3.62;91.54;100594.55;1702716;83;21596;-70
2022/03/02 09:03:19;;;;;;;43.68;17.27;;;;;;;3.69;91.08;100589.77;1712919;82;21055;-72
2022/03/02 09:05:49;;;;;;;41.85;17.27;;;;;;;3.69;90.93;100588.90;1712780;83;21574;-72
2022/03/02 09:08:16;;;;;;;43.02;16.40;;;;;;;3.75;90.19;100585.85;1712744;82;21607;-71
2022/03/02 09:10:45;;;;;;;39.73;15.50;;;;;;;3.72;90.61;100583.67;1713094;82;21583;-70
2022/03/02 09:13:12;;;;;;;39.15;15.08;;;;;;;3.65;90.27;100580.20;1702940;83;21611;-70
2022/03/02 09:15:41;;;;;;;38.28;15.93;;;;;;;3.62;90.87;100587.17;1713018;82;21058;-70
2022/03/02 09:18:10;;;;;;;39.50;17.20;;;;;;;3.63;91.48;100584.55;1712951;82;21578;-71
2022/03/02 09:20:38;;;;;;;40.80;16.77;;;;;;;3.68;91.50;100581.94;1713023;83;21528;-70
2022/03/02 09:23:07;;;;;;;40.92;15.83;;;;;;;3.67;91.54;100582.83;1702616;83;21618;-70
2022/03/02 09:25:38;;;;;;;41.85;17.05;;;;;;;3.66;91.27;100577.16;1702749;83;21102;-70
2022/03/02 09:28:09;;;;;;;;;;;;;;;3.64;91.62;100575.02;1718167;82;21019;-71
2022/03/02 09:30:37;;;;;;;44.93;20.90;;;;;;;3.63;91.66;100573.27;1720785;82;20198;-71
2022/03/02 09:33:10;;;;;;;58.05;20.25;;;;;;;3.68;91.07;100572.41;1720875;83;21045;-73
2022/03/02 09:35:38;;;;;;;47.38;18.30;;;;;;;3.65;91.41;100563.72;1702001;83;21731;-72
2022/03/02 09:38:08;;;;;;;38.83;15.53;;;;;;;3.66;91.62;100566.34;1720529;82;21041;-71
2022/03/02 09:40:36;;;;;;;44.00;16.37;;;;;;;3.70;92.22;100562.83;1702478;83;21010;-72
2022/03/02 09:43:07;;;;;;;37.40;14.78;;;;;;;3.75;92.22;100556.30;1678787;83;21534;-69
2022/03/02 09:45:36;;;;;;;38.53;16.50;;;;;;;3.89;91.96;100559.77;1720635;83;21042;-71
2022/03/02 09:48:04;;;;;;;41.48;16.57;;;;;;;3.94;91.03;100552.80;1720641;83;21049;-70
2022/03/02 09:50:36;;;;;;;46.25;16.27;;;;;;;3.93;90.23;100552.37;1720267;82;21533;-71
2022/03/02 09:53:09;;;;;;;33.93;13.40;;;;;;;3.94;90.17;100546.28;1720844;82;21620;-71
2022/03/02 09:55:36;;;;;;;32.48;14.18;;;;;;;3.91;90.64;100546.30;1720451;83;21066;-71
2022/03/02 09:58:05;;;;;;;31.30;14.07;;;;;;;3.86;91.06;100548.03;1702453;83;21078;-70
2022/03/02 10:00:33;;;;;;;33.25;13.62;;;;;;;3.88;90.00;100541.08;1720916;83;21046;-70
2022/03/02 10:03:01;;;;;;;37.38;14.65;;;;;;;3.83;89.89;100542.84;1720791;83;21574;-70
2022/03/02 10:05:33;;;;;;;30.02;13.43;;;;;;;3.78;90.80;100535.03;1720502;83;21607;-71
2022/03/02 10:08:05;;;;;;;33.18;14.00;;;;;;;3.72;90.81;100532.88;1720560;82;21564;-70
2022/03/02 10:10:37;;;;;;;31.27;13.03;;;;;;;3.76;91.65;100528.95;1720475;83;21574;-70
2022/03/02 10:13:16;;;;;;;29.10;11.75;;;;;;;3.85;91.81;100522.00;1721021;83;21079;-70
2022/03/02 10:15:44;;;;;;;34.38;14.63;;;;;;;3.94;91.42;100522.83;1720794;83;21994;-70
2022/03/02 10:18:14;;;;;;;66.92;34.98;;;;;;;4.02;91.48;100519.33;1720816;83;21538;-71
2022/03/02 10:20:49;;;;;;;36.33;14.98;;;;;;;4.14;91.99;100511.44;1720588;83;21062;-69
2022/03/02 10:23:37;;;;;;;34.20;14.38;;;;;;;4.31;90.00;100505.72;1720588;83;21078;-69
2022/03/02 10:26:19;;;;;;;35.23;14.65;;;;;;;4.40;89.74;100504.81;1720755;83;21020;-69
2022/03/02 10:29:19;;;;;;;29.50;12.70;;;;;;;4.45;90.03;100500.87;1735078;82;21087;-70
2022/03/02 10:32:08;;;;;;;30.35;12.55;;;;;;;4.46;88.84;100497.38;1750632;82;21528;-70
2022/03/02 10:34:54;;;;;;;28.27;11.78;;;;;;;4.39;89.29;100494.83;1742056;82;21031;-69
2022/03/02 10:37:39;;;;;;;27.17;11.75;;;;;;;4.33;88.69;100488.77;1750375;82;21558;-69
2022/03/02 10:40:23;;;;;;;32.40;13.50;;;;;;;4.30;88.37;100484.45;1750058;82;21018;-70
2022/03/02 10:43:05;;;;;;;29.35;12.70;;;;;;;4.28;88.65;100488.80;1750335;82;21628;-70
2022/03/02 10:45:49;;;;;;;30.30;12.63;;;;;;;4.32;88.79;100481.80;1749976;82;21594;-70
2022/03/02 10:48:43;;;;;;;39.73;19.23;;;;;;;4.29;89.04;100480.09;1750145;82;21101;-69
2022/03/02 10:51:11;;;;;;;22.60;10.93;;;;;;;4.35;89.82;100468.77;1750356;82;21542;-70
2022/03/02 10:53:40;;;;;;;24.72;11.43;;;;;;;4.39;89.04;100467.44;1721112;82;21114;-70
2022/03/02 10:56:13;;;;;;;23.70;9.75;;;;;;;4.46;89.33;100471.29;1750443;82;22117;-70
2022/03/02 10:58:40;;;;;;;26.17;12.28;;;;;;;4.48;88.78;100469.09;1750398;82;21532;-71
2022/03/02 11:01:07;;;;;;;33.70;17.48;;;;;;;4.58;88.49;100462.09;1721163;82;21042;-71
2022/03/02 11:03:37;;;;;;;46.37;18.32;;;;;;;4.56;88.29;100462.55;1750265;82;21598;-72
2022/03/02 11:06:06;;;;;;;46.50;15.53;;;;;;;4.57;88.23;100456.44;1750293;82;21090;-70
2022/03/02 11:08:37;;;;;;;20.85;9.85;;;;;;;4.60;88.61;100448.58;1750240;82;21585;-71
2022/03/02 11:11:09;;;;;;;21.60;9.55;;;;;;;4.66;88.41;100448.54;1750221;82;21598;-70
2022/03/02 11:13:38;;;;;;;49.83;21.10;;;;;;;4.68;87.63;100443.33;1750454;81;21077;-70
2022/03/02 11:16:08;;;;;;;27.15;13.13;;;;;;;4.63;86.39;100438.14;1721956;82;21066;-70
2022/03/02 11:18:39;;;;;;;24.25;11.60;;;;;;;4.61;86.39;100442.05;1750208;82;21606;-71
2022/03/02 11:21:20;;;;;;;22.35;11.22;;;;;;;4.68;86.56;100441.58;1720961;82;21600;-71
2022/03/02 11:23:54;;;;;;;20.68;9.73;;;;;;;4.76;85.59;100430.65;1719334;82;21062;-70
2022/03/02 11:26:35;;;;;;;22.80;9.85;;;;;;;4.67;85.84;100422.90;1750508;82;21031;-70